Time;durP1;ratioP1;P1;durP2;ratioP2;P2;SDS_P1;SDS_P2;PMS_P1;PMS_P2;Temp;Humidity;BMP_temperature;BMP_pressure;BME280_temperature;BME280_humidity;BME280_pressure;Samples;Min_cycle;Max_cycle;Signal;HPM_P1;HPM_P2
2022/04/09 00:01:43;;;;;;;3.15;0.80;;;14.40;70.70;;;;;;3927788;30;20412;-64
2022/04/09 00:04:05;;;;;;;6.20;1.50;;;14.40;70.90;;;;;;3914493;30;20410;-65
2022/04/09 00:06:27;;;;;;;5.07;1.30;;;14.40;70.90;;;;;;3927614;30;20493;-64
2022/04/09 00:08:49;;;;;;;3.55;0.90;;;14.40;71.80;;;;;;3913287;30;20048;-64
2022/04/09 00:11:13;;;;;;;12.43;1.17;;;14.40;70.90;;;;;;3912485;30;20168;-64
2022/04/09 00:13:35;;;;;;;7.55;0.80;;;14.40;70.70;;;;;;3912998;30;20489;-64
2022/04/09 00:15:57;;;;;;;5.85;1.00;;;14.40;70.90;;;;;;3912855;30;20079;-64
2022/04/09 00:18:19;;;;;;;5.30;1.48;;;14.40;70.80;;;;;;3924427;30;20064;-65
2022/04/09 00:20:42;;;;;;;1.90;0.60;;;14.30;70.70;;;;;;3927128;30;20060;-65
2022/04/09 00:23:04;;;;;;;4.88;0.82;;;14.30;70.60;;;;;;3926684;30;20527;-65
2022/04/09 00:25:27;;;;;;;6.25;0.98;;;14.30;70.90;;;;;;3913720;30;20105;-67
2022/04/09 00:27:50;;;;;;;5.07;1.02;;;14.30;71.10;;;;;;3926836;30;20139;-65
2022/04/09 00:30:13;;;;;;;6.93;1.20;;;14.30;71.20;;;;;;3927147;30;20500;-65
2022/04/09 00:32:35;;;;;;;5.20;0.77;;;14.30;71.20;;;;;;3927043;30;20139;-64
2022/04/09 00:34:58;;;;;;;3.22;1.08;;;14.30;71.40;;;;;;3927169;30;20505;-66
2022/04/09 00:37:20;;;;;;;2.65;0.75;;;14.30;71.40;;;;;;3913736;30;20572;-65
2022/04/09 00:39:42;;;;;;;8.10;1.50;;;14.20;71.50;;;;;;3927140;30;20064;-67
2022/04/09 00:42:05;;;;;;;4.47;1.08;;;14.20;71.30;;;;;;3927404;30;20052;-64
2022/04/09 00:44:31;;;;;;;6.80;1.13;;;14.20;71.20;;;;;;3926564;30;20145;-64
2022/04/09 00:46:53;;;;;;;6.00;1.40;;;14.30;71.30;;;;;;3913069;30;20064;-67
2022/04/09 00:49:17;;;;;;;6.45;1.40;;;14.20;71.40;;;;;;3926405;30;20424;-65
2022/04/09 00:51:41;;;;;;;6.68;1.42;;;14.20;71.50;;;;;;3912952;30;20053;-65
2022/04/09 00:54:06;;;;;;;6.53;1.10;;;14.20;71.00;;;;;;3913347;30;20110;-64
2022/04/09 00:56:29;;;;;;;4.47;1.35;;;14.20;70.40;;;;;;3913479;30;20198;-65
2022/04/09 00:58:55;;;;;;;8.55;1.05;;;14.20;70.80;;;;;;3913384;30;20063;-64
2022/04/09 01:01:20;;;;;;;5.82;1.52;;;14.20;71.10;;;;;;3900821;30;20227;-64
2022/04/09 01:03:44;;;;;;;5.85;1.63;;;14.20;71.30;;;;;;3926818;30;20114;-64
2022/04/09 01:06:07;;;;;;;7.85;1.55;;;14.10;71.40;;;;;;3925845;30;20059;-64
2022/04/09 01:08:29;;;;;;;7.53;1.30;;;14.20;71.60;;;;;;3925253;30;20053;-64
2022/04/09 01:10:52;;;;;;;5.32;1.30;;;14.20;71.60;;;;;;3913451;30;20052;-64
2022/04/09 01:13:18;;;;;;;6.43;0.95;;;14.20;71.70;;;;;;3912933;30;20147;-65
2022/04/09 01:15:40;;;;;;;7.72;1.35;;;14.10;71.80;;;;;;3913140;30;20566;-64
2022/04/09 01:18:04;;;;;;;4.85;1.38;;;14.10;71.60;;;;;;3926444;30;20086;-65
2022/04/09 01:20:29;;;;;;;4.78;1.50;;;14.10;70.00;;;;;;3913311;30;20590;-65
2022/04/09 01:22:52;;;;;;;2.78;0.80;;;14.10;69.20;;;;;;3912998;30;20520;-64
2022/04/09 01:25:15;;;;;;;3.00;0.80;;;14.10;69.20;;;;;;3926221;30;20064;-65
2022/04/09 01:27:39;;;;;;;3.15;0.57;;;14.10;70.00;;;;;;3913236;30;20048;-65
2022/04/09 01:30:02;;;;;;;2.20;0.85;;;14.00;70.70;;;;;;3925909;30;20056;-64
2022/04/09 01:32:24;;;;;;;2.47;0.80;;;14.00;71.00;;;;;;3913352;30;20086;-65
2022/04/09 01:34:46;;;;;;;3.80;0.60;;;14.00;71.10;;;;;;3926100;30;20479;-65
2022/04/09 01:37:09;;;;;;;5.68;1.58;;;14.00;71.40;;;;;;3925434;30;20076;-64
2022/04/09 01:39:33;;;;;;;4.20;0.68;;;14.00;71.50;;;;;;3913310;30;20576;-64
2022/04/09 01:41:58;;;;;;;1.95;0.70;;;14.00;71.70;;;;;;3913242;30;20402;-64
2022/04/09 01:44:21;;;;;;;5.70;1.10;;;14.00;71.90;;;;;;3925674;30;20091;-64
2022/04/09 01:46:44;;;;;;;3.58;0.98;;;14.00;71.90;;;;;;3926062;30;20109;-64
2022/04/09 01:49:08;;;;;;;5.63;0.80;;;14.00;72.00;;;;;;3925037;30;20078;-64
2022/04/09 01:51:30;;;;;;;1.55;0.77;;;14.00;72.20;;;;;;3925088;30;20083;-64
2022/04/09 01:53:53;;;;;;;2.92;1.00;;;14.00;72.00;;;;;;3913243;30;20079;-64
2022/04/09 01:56:16;;;;;;;3.20;0.90;;;14.00;72.10;;;;;;3912074;30;20056;-64
2022/04/09 01:58:39;;;;;;;3.90;0.90;;;14.00;72.20;;;;;;3925636;30;20079;-63
2022/04/09 02:01:01;;;;;;;5.50;0.98;;;14.00;72.20;;;;;;3925566;30;20162;-64
2022/04/09 02:03:24;;;;;;;1.77;0.60;;;13.90;72.20;;;;;;3925722;30;20148;-64
2022/04/09 02:05:47;;;;;;;4.13;0.95;;;13.90;72.30;;;;;;3925158;30;20052;-64
2022/04/09 02:08:09;;;;;;;4.03;1.00;;;13.90;71.50;;;;;;3908880;30;20057;-64
2022/04/09 02:10:31;;;;;;;4.22;1.15;;;13.90;70.70;;;;;;3908839;30;20056;-64
2022/04/09 02:12:57;;;;;;;1.65;0.60;;;13.90;70.00;;;;;;3920034;30;20187;-63
2022/04/09 02:15:19;;;;;;;5.95;1.35;;;13.90;71.10;;;;;;3898529;30;20055;-64
2022/04/09 02:17:43;;;;;;;7.13;1.10;;;13.90;71.60;;;;;;3897721;30;20080;-62
2022/04/09 02:20:07;;;;;;;6.60;0.90;;;13.90;71.90;;;;;;3923245;30;20402;-64
2022/04/09 02:22:35;;;;;;;1.08;0.90;;;13.90;72.90;;;;;;3925874;30;20059;-64
2022/04/09 02:24:57;;;;;;;3.75;0.82;;;13.90;72.10;;;;;;3924775;30;20457;-64
2022/04/09 02:27:19;;;;;;;6.57;0.90;;;13.80;72.30;;;;;;3924829;30;20514;-64
2022/04/09 02:29:42;;;;;;;3.33;0.88;;;13.80;72.30;;;;;;3912917;30;20503;-65
2022/04/09 02:32:05;;;;;;;4.13;0.85;;;13.80;72.30;;;;;;3912534;30;20048;-65
2022/04/09 02:34:28;;;;;;;1.90;0.65;;;13.80;72.40;;;;;;3912607;30;20064;-64
2022/04/09 02:36:51;;;;;;;4.18;0.60;;;13.80;72.40;;;;;;3913000;30;20067;-63
2022/04/09 02:39:14;;;;;;;3.45;0.85;;;13.80;72.50;;;;;;3925402;30;20135;-63
2022/04/09 02:41:36;;;;;;;2.03;0.70;;;13.80;72.50;;;;;;3912891;30;20056;-64
2022/04/09 02:43:59;;;;;;;6.88;1.00;;;13.80;72.60;;;;;;3912242;30;20057;-64
2022/04/09 02:46:23;;;;;;;3.22;0.88;;;13.80;73.40;;;;;;3913286;30;20084;-63
2022/04/09 02:48:45;;;;;;;3.88;1.25;;;13.80;72.60;;;;;;3914784;30;20065;-64
2022/04/09 02:51:12;;;;;;;4.47;0.80;;;13.80;72.60;;;;;;3927064;30;22960;-64
2022/04/09 02:53:35;;;;;;;7.13;1.20;;;13.80;72.70;;;;;;3903132;30;20560;-64
2022/04/09 02:55:58;;;;;;;4.55;1.27;;;13.80;72.70;;;;;;3900826;30;20059;-63
2022/04/09 02:58:20;;;;;;;5.85;1.20;;;13.80;72.80;;;;;;3923130;30;20086;-64
2022/04/09 03:00:43;;;;;;;7.55;1.38;;;13.80;72.70;;;;;;3915309;30;20786;-65
2022/04/09 03:03:08;;;;;;;4.30;1.05;;;13.80;72.50;;;;;;3927522;30;20523;-64
2022/04/09 03:05:39;;;;;;;3.45;1.10;;;13.80;72.80;;;;;;3914718;30;20479;-64
2022/04/09 03:08:02;;;;;;;6.63;1.30;;;13.80;73.80;;;;;;3914984;30;20513;-64
2022/04/09 03:10:24;;;;;;;2.60;0.93;;;13.70;72.80;;;;;;3927473;30;20063;-64
2022/04/09 03:12:48;;;;;;;3.40;0.90;;;13.70;72.50;;;;;;3915087;30;20065;-64
2022/04/09 03:15:11;;;;;;;4.20;1.30;;;13.70;72.80;;;;;;3914426;30;20079;-64
2022/04/09 03:17:33;;;;;;;4.85;0.80;;;13.70;72.70;;;;;;3914063;30;20114;-64
2022/04/09 03:19:57;;;;;;;7.40;1.13;;;13.70;73.00;;;;;;3914283;30;20053;-64
2022/04/09 03:22:18;;;;;;;6.05;1.00;;;13.70;73.00;;;;;;3928559;30;20059;-63
2022/04/09 03:24:41;;;;;;;5.10;1.40;;;13.70;73.00;;;;;;3914927;30;20041;-63
2022/04/09 03:27:07;;;;;;;8.10;1.00;;;13.70;73.20;;;;;;3914265;30;20057;-63
2022/04/09 03:29:31;;;;;;;7.60;1.27;;;13.70;73.20;;;;;;3927385;30;20163;-63
2022/04/09 03:31:54;;;;;;;4.80;0.95;;;13.70;73.20;;;;;;3914541;30;20159;-64
2022/04/09 03:34:17;;;;;;;6.63;1.13;;;13.70;73.20;;;;;;3927742;30;20084;-63
2022/04/09 03:36:42;;;;;;;5.00;1.00;;;13.70;73.10;;;;;;3914846;30;20052;-63
2022/04/09 03:39:04;;;;;;;8.68;1.20;;;13.70;73.00;;;;;;3927266;30;21034;-64
2022/04/09 03:41:27;;;;;;;4.43;0.80;;;13.70;73.20;;;;;;3914919;30;20140;-65
2022/04/09 03:43:53;;;;;;;6.05;1.30;;;13.60;73.10;;;;;;3927321;30;20129;-64
2022/04/09 03:46:21;;;;;;;1.73;0.82;;;13.60;73.00;;;;;;3914290;30;20106;-64
2022/04/09 03:48:44;;;;;;;3.38;0.90;;;13.60;73.10;;;;;;3914818;30;20466;-64
2022/04/09 03:51:08;;;;;;;4.20;1.05;;;13.60;73.10;;;;;;3907141;30;20139;-64
2022/04/09 03:53:32;;;;;;;2.22;0.90;;;13.60;73.00;;;;;;3914775;30;20057;-64
2022/04/09 03:55:56;;;;;;;3.42;1.13;;;13.60;73.00;;;;;;3927213;30;20114;-65
2022/04/09 03:58:19;;;;;;;6.88;1.63;;;13.60;73.10;;;;;;3913706;30;20136;-63
2022/04/09 04:00:43;;;;;;;5.40;1.02;;;13.60;73.00;;;;;;3926214;30;20445;-64
2022/04/09 04:03:07;;;;;;;4.55;1.63;;;13.60;72.00;;;;;;3914119;30;20060;-64
2022/04/09 04:05:32;;;;;;;6.60;1.23;;;13.60;69.50;;;;;;3914490;30;20131;-64
2022/04/09 04:07:55;;;;;;;4.10;1.00;;;13.60;70.70;;;;;;3926401;30;20120;-64
2022/04/09 04:10:19;;;;;;;9.85;2.08;;;13.60;72.10;;;;;;3914104;30;20048;-65
2022/04/09 04:12:48;;;;;;;3.58;1.40;;;13.60;72.60;;;;;;3913437;30;20079;-65
2022/04/09 04:15:15;;;;;;;4.25;1.33;;;13.50;73.80;;;;;;3914486;30;20122;-64
2022/04/09 04:17:41;;;;;;;1.65;0.80;;;13.50;73.00;;;;;;3914360;30;20139;-64
2022/04/09 04:20:05;;;;;;;5.85;1.20;;;13.50;73.10;;;;;;3913532;30;20412;-64
2022/04/09 04:22:28;;;;;;;4.50;1.08;;;13.50;73.20;;;;;;3913664;30;20068;-64
2022/04/09 04:24:50;;;;;;;7.03;1.10;;;13.50;73.40;;;;;;3914284;30;20065;-65
2022/04/09 04:27:14;;;;;;;5.13;1.25;;;13.50;73.40;;;;;;3901849;30;20061;-65
2022/04/09 04:29:36;;;;;;;6.72;1.05;;;13.50;73.40;;;;;;3898962;30;20063;-64
2022/04/09 04:32:00;;;;;;;8.38;0.90;;;13.50;73.50;;;;;;3912078;30;20065;-65
2022/04/09 04:34:22;;;;;;;8.27;1.38;;;13.50;73.40;;;;;;3912042;30;20065;-65
2022/04/09 04:36:44;;;;;;;5.30;1.02;;;13.50;73.20;;;;;;3899606;30;20063;-65
2022/04/09 04:39:07;;;;;;;7.05;1.42;;;13.50;73.00;;;;;;3913082;30;20397;-65
2022/04/09 04:41:29;;;;;;;7.28;1.38;;;13.50;73.10;;;;;;3911117;30;20118;-65
2022/04/09 04:43:53;;;;;;;5.72;1.45;;;13.50;73.30;;;;;;3911741;30;20536;-65
2022/04/09 04:46:20;;;;;;;6.13;1.75;;;13.40;73.30;;;;;;3911402;30;20063;-64
2022/04/09 04:48:44;;;;;;;3.63;1.05;;;13.40;73.60;;;;;;3899049;30;20123;-64
2022/04/09 04:51:06;;;;;;;5.20;1.10;;;13.40;73.70;;;;;;3911154;30;20067;-65
2022/04/09 04:53:30;;;;;;;6.53;1.30;;;13.50;73.70;;;;;;3912525;30;20114;-68
2022/04/09 04:55:53;;;;;;;6.10;1.90;;;13.40;74.60;;;;;;3912774;30;20049;-67
2022/04/09 04:58:20;;;;;;;2.55;1.20;;;13.50;74.90;;;;;;3899355;30;20061;-65
2022/04/09 05:00:49;;;;;;;4.88;1.63;;;13.50;74.70;;;;;;3898218;30;20532;-67
2022/04/09 05:03:13;;;;;;;6.68;1.30;;;13.50;74.30;;;;;;3898762;30;20146;-67
2022/04/09 05:05:46;;;;;;;6.13;1.00;;;13.50;74.10;;;;;;3898707;30;20057;-67
2022/04/09 05:08:10;;;;;;;6.80;1.15;;;13.50;74.20;;;;;;3911172;30;20049;-69
2022/04/09 05:10:32;;;;;;;5.75;1.27;;;13.50;74.20;;;;;;3898623;30;20181;-68
2022/04/09 05:12:58;;;;;;;8.35;1.30;;;13.50;74.20;;;;;;3911059;30;20109;-65
2022/04/09 05:15:21;;;;;;;4.20;1.23;;;13.50;74.10;;;;;;3898813;30;20060;-64
2022/04/09 05:17:47;;;;;;;4.38;1.10;;;13.50;74.30;;;;;;3910541;30;20048;-64
2022/04/09 05:20:12;;;;;;;10.32;1.63;;;13.50;74.50;;;;;;3911152;30;20571;-64
2022/04/09 05:22:36;;;;;;;6.90;1.48;;;13.40;75.30;;;;;;3911733;30;20513;-63
2022/04/09 05:25:02;;;;;;;8.57;1.33;;;13.50;74.40;;;;;;3898805;30;20077;-64
2022/04/09 05:27:26;;;;;;;7.25;1.30;;;13.50;74.40;;;;;;3898746;30;20049;-66
2022/04/09 05:29:50;;;;;;;7.05;1.48;;;13.50;74.20;;;;;;3896740;30;20053;-66
2022/04/09 05:32:14;;;;;;;6.65;1.17;;;13.50;74.40;;;;;;3897310;30;20061;-68
2022/04/09 05:34:38;;;;;;;4.53;1.00;;;13.50;74.50;;;;;;3896971;30;20140;-66
2022/04/09 05:37:00;;;;;;;8.48;1.25;;;13.40;74.40;;;;;;3897535;30;20592;-68
2022/04/09 05:39:22;;;;;;;3.13;0.80;;;13.40;74.40;;;;;;3907904;30;20135;-67
2022/04/09 05:41:49;;;;;;;4.97;1.40;;;13.40;74.20;;;;;;3898497;30;20444;-67
2022/04/09 05:44:11;;;;;;;4.30;1.10;;;13.40;74.40;;;;;;3898866;30;20551;-67
2022/04/09 05:46:34;;;;;;;7.63;1.58;;;13.40;74.50;;;;;;3898853;30;20041;-68
2022/04/09 05:49:02;;;;;;;5.50;1.50;;;13.40;74.40;;;;;;3897982;30;20066;-67
2022/04/09 05:51:26;;;;;;;4.57;1.70;;;13.40;74.40;;;;;;3911972;30;20056;-67
2022/04/09 05:53:49;;;;;;;5.15;1.55;;;13.40;74.40;;;;;;3912417;30;20072;-68
2022/04/09 05:56:12;;;;;;;3.95;1.17;;;13.40;74.00;;;;;;3910971;30;20217;-68
2022/04/09 05:58:39;;;;;;;3.65;0.80;;;13.40;74.40;;;;;;3912232;30;20143;-66
2022/04/09 06:01:03;;;;;;;2.17;0.85;;;13.40;74.00;;;;;;3886499;30;20053;-67
2022/04/09 06:03:28;;;;;;;6.97;1.20;;;13.40;73.90;;;;;;3910757;30;20543;-68
2022/04/09 06:05:51;;;;;;;5.93;1.05;;;13.40;73.50;;;;;;3897598;30;20131;-65
2022/04/09 06:08:35;;;;;;;6.55;1.13;;;13.40;73.80;;;;;;3910868;30;20148;-67
2022/04/09 06:11:08;;;;;;;3.17;1.08;;;13.40;73.90;;;;;;3897672;30;20064;-67
2022/04/09 06:13:30;;;;;;;3.03;1.10;;;13.40;73.80;;;;;;3898226;30;20119;-67
2022/04/09 06:15:53;;;;;;;2.90;0.95;;;13.40;73.60;;;;;;3910118;30;20359;-66
2022/04/09 06:18:20;;;;;;;4.15;0.93;;;13.40;73.10;;;;;;3898173;30;20502;-66
2022/04/09 06:20:42;;;;;;;1.83;0.73;;;13.40;73.40;;;;;;3898863;30;20498;-66
2022/04/09 06:23:08;;;;;;;7.82;1.10;;;13.50;73.60;;;;;;3899396;30;20497;-66
2022/04/09 06:25:32;;;;;;;3.30;1.02;;;13.50;73.70;;;;;;3900537;30;20057;-68
2022/04/09 06:27:55;;;;;;;7.55;1.92;;;13.40;74.20;;;;;;3901761;30;20140;-66
2022/04/09 06:30:17;;;;;;;12.80;1.92;;;13.40;73.30;;;;;;3901559;30;20057;-67
2022/04/09 06:32:48;;;;;;;5.57;1.30;;;13.40;73.30;;;;;;3901551;30;20053;-66
2022/04/09 06:35:11;;;;;;;3.17;1.20;;;13.40;73.30;;;;;;3901297;30;20499;-66
2022/04/09 06:37:36;;;;;;;6.80;1.10;;;13.40;73.50;;;;;;3886859;30;20426;-66
2022/04/09 06:40:00;;;;;;;6.35;1.08;;;13.40;73.60;;;;;;3899011;30;20059;-66
2022/04/09 06:42:25;;;;;;;4.57;1.25;;;13.40;73.90;;;;;;3898876;30;20081;-66
2022/04/09 06:45:22;;;;;;;4.38;0.80;;;13.40;73.50;;;;;;3854355;30;20069;-66
2022/04/09 06:48:08;;;;;;;5.40;1.10;;;13.50;73.20;;;;;;3914230;30;20190;-67
2022/04/09 06:50:39;;;;;;;6.57;1.05;;;13.50;73.00;;;;;;3913831;30;20088;-66
2022/04/09 06:53:02;;;;;;;9.32;2.00;;;13.60;73.30;;;;;;3914997;30;20553;-67
2022/04/09 06:55:35;;;;;;;9.38;1.75;;;13.60;73.30;;;;;;3912197;30;20052;-69
2022/04/09 06:58:02;;;;;;;9.15;1.27;;;13.60;73.00;;;;;;3910538;30;20127;-66
2022/04/09 07:00:32;;;;;;;3.67;1.23;;;13.60;72.80;;;;;;3910606;30;20052;-67
2022/04/09 07:02:55;;;;;;;5.78;1.67;;;13.60;72.70;;;;;;3910834;30;20559;-67
2022/04/09 07:05:18;;;;;;;8.07;1.42;;;13.60;72.10;;;;;;3902729;30;20143;-65
2022/04/09 07:07:40;;;;;;;9.35;1.48;;;13.60;72.00;;;;;;3913879;30;20052;-67
2022/04/09 07:10:08;;;;;;;7.57;2.13;;;13.50;72.30;;;;;;3914101;30;20064;-66
2022/04/09 07:12:30;;;;;;;8.45;1.70;;;13.50;72.70;;;;;;3913555;30;20080;-66
2022/04/09 07:14:54;;;;;;;9.35;2.15;;;13.50;73.10;;;;;;3913905;30;20501;-64
2022/04/09 07:17:20;;;;;;;11.80;1.92;;;13.50;73.10;;;;;;3913803;30;20115;-66
2022/04/09 07:19:43;;;;;;;5.40;1.30;;;13.50;72.90;;;;;;3913698;30;20135;-65
2022/04/09 07:22:06;;;;;;;10.02;1.33;;;13.50;73.10;;;;;;3914149;30;20139;-65
2022/04/09 07:24:28;;;;;;;12.73;1.88;;;13.50;73.40;;;;;;3913912;30;20151;-65
2022/04/09 07:26:49;;;;;;;5.90;1.58;;;13.50;73.40;;;;;;3899406;30;20048;-65
2022/04/09 07:29:12;;;;;;;8.23;1.38;;;13.50;72.60;;;;;;3899655;30;20053;-64
2022/04/09 07:31:35;;;;;;;11.05;1.88;;;13.50;72.80;;;;;;3899317;30;20068;-64
2022/04/09 07:33:57;;;;;;;8.88;1.58;;;13.50;72.90;;;;;;3899146;30;20159;-66
2022/04/09 07:36:20;;;;;;;7.93;1.90;;;13.50;73.50;;;;;;3911265;30;20061;-65
2022/04/09 07:38:42;;;;;;;8.40;1.73;;;13.50;72.80;;;;;;3914088;30;20061;-65
2022/04/09 07:41:04;;;;;;;10.00;1.48;;;13.60;73.10;;;;;;3914040;30;20068;-66
2022/04/09 07:43:26;;;;;;;8.02;1.65;;;13.60;73.00;;;;;;3913624;30;20063;-65
2022/04/09 07:45:48;;;;;;;6.32;1.38;;;13.70;72.60;;;;;;3913198;30;20477;-64
2022/04/09 07:48:12;;;;;;;7.82;1.40;;;13.70;73.00;;;;;;3913531;30;20056;-66
2022/04/09 07:50:34;;;;;;;5.55;1.30;;;13.80;72.80;;;;;;3913528;30;20091;-65
2022/04/09 07:52:57;;;;;;;8.00;1.88;;;13.80;72.20;;;;;;3913476;30;20080;-65
2022/04/09 07:55:20;;;;;;;5.15;1.83;;;13.80;72.00;;;;;;3913224;30;20581;-65
2022/04/09 07:57:43;;;;;;;7.50;1.38;;;13.90;73.00;;;;;;3897724;30;20493;-65
2022/04/09 08:00:07;;;;;;;8.20;1.52;;;13.90;71.50;;;;;;3899162;30;20057;-63
2022/04/09 08:02:35;;;;;;;6.25;1.25;;;14.00;71.70;;;;;;3899172;30;20100;-65
2022/04/09 08:04:58;;;;;;;7.97;1.55;;;14.00;71.40;;;;;;3899167;30;20149;-64
2022/04/09 08:07:20;;;;;;;10.57;1.63;;;14.00;71.40;;;;;;3899140;30;20140;-64
2022/04/09 08:09:43;;;;;;;11.10;1.90;;;14.00;70.60;;;;;;3895940;30;20136;-64
2022/04/09 08:12:06;;;;;;;6.18;1.25;;;13.90;70.70;;;;;;3899371;30;20173;-64
2022/04/09 08:14:30;;;;;;;7.57;1.95;;;13.90;71.30;;;;;;3899156;30;20095;-64
2022/04/09 08:16:52;;;;;;;10.57;1.40;;;13.90;71.30;;;;;;3897680;30;20063;-64
2022/04/09 08:19:13;;;;;;;15.48;2.00;;;13.90;71.60;;;;;;3899424;30;20145;-64
2022/04/09 08:21:37;;;;;;;10.15;1.92;;;13.90;71.30;;;;;;3899058;30;20065;-65
2022/04/09 08:23:59;;;;;;;9.13;1.55;;;13.90;72.00;;;;;;3899098;30;20082;-64
2022/04/09 08:26:22;;;;;;;8.90;1.98;;;13.80;71.50;;;;;;3899060;30;20482;-65
2022/04/09 08:28:44;;;;;;;7.45;1.80;;;13.80;71.60;;;;;;3897620;30;20060;-65
2022/04/09 08:31:06;;;;;;;7.60;1.95;;;13.80;71.50;;;;;;3892500;30;20159;-66
2022/04/09 08:33:28;;;;;;;13.50;1.88;;;13.80;70.90;;;;;;3889921;30;20101;-66
2022/04/09 08:35:50;;;;;;;3.53;0.98;;;13.70;71.10;;;;;;3898180;30;20057;-65
2022/04/09 08:38:13;;;;;;;2.17;0.75;;;13.70;71.50;;;;;;3899233;30;20069;-66
2022/04/09 08:40:37;;;;;;;3.38;0.50;;;13.70;70.00;;;;;;3898745;30;20057;-66
2022/04/09 08:43:00;;;;;;;2.85;0.35;;;13.70;67.90;;;;;;3898239;30;20053;-66
2022/04/09 08:45:22;;;;;;;1.05;0.40;;;13.60;68.40;;;;;;3898951;30;20479;-66
2022/04/09 08:47:46;;;;;;;0.55;0.25;;;13.60;69.50;;;;;;3897651;30;20110;-65
2022/04/09 08:50:10;;;;;;;3.10;0.50;;;13.60;70.70;;;;;;3898708;30;20490;-65
2022/04/09 08:52:33;;;;;;;2.40;0.70;;;13.60;70.60;;;;;;3898459;30;20366;-65
2022/04/09 08:54:59;;;;;;;5.57;0.88;;;13.60;70.50;;;;;;3898937;30;20061;-66
2022/04/09 08:57:21;;;;;;;6.22;1.08;;;13.60;70.90;;;;;;3923958;30;20059;-66
2022/04/09 08:59:44;;;;;;;6.85;1.10;;;13.60;71.60;;;;;;3927051;30;20075;-66
2022/04/09 09:02:07;;;;;;;5.50;1.20;;;13.60;72.80;;;;;;3927121;30;20059;-66
2022/04/09 09:04:29;;;;;;;5.38;1.55;;;13.60;72.00;;;;;;3927288;30;20067;-65
2022/04/09 09:06:51;;;;;;;9.00;1.70;;;13.70;71.80;;;;;;3915783;30;20068;-66
2022/04/09 09:09:27;;;;;;;3.10;2.05;;;13.70;70.80;;;;;;3912448;30;20059;-66
2022/04/09 09:11:50;;;;;;;8.57;2.75;;;13.70;67.20;;;;;;3916030;30;20052;-66
2022/04/09 09:14:25;;;;;;;6.15;1.50;;;13.70;67.20;;;;;;3926931;30;20143;-66
2022/04/09 09:16:50;;;;;;;5.68;2.42;;;13.70;67.40;;;;;;3926750;30;20122;-65
2022/04/09 09:19:12;;;;;;;5.40;1.40;;;13.60;68.70;;;;;;3926619;30;20142;-66
2022/04/09 09:21:35;;;;;;;3.33;1.15;;;13.60;67.20;;;;;;3926719;30;20084;-65
2022/04/09 09:24:18;;;;;;;11.43;7.13;;;13.60;67.70;;;;;;3926639;30;20501;-64
2022/04/09 09:26:41;;;;;;;9.45;5.85;;;13.50;69.80;;;;;;3926231;30;20068;-65
2022/04/09 09:29:08;;;;;;;2.38;1.77;;;13.50;70.00;;;;;;3926623;30;20059;-65
2022/04/09 09:31:43;;;;;;;1.85;0.50;;;13.50;70.20;;;;;;3926286;30;20060;-64
2022/04/09 09:34:09;;;;;;;1.95;1.80;;;13.60;73.00;;;;;;3926793;30;20059;-64
2022/04/09 09:36:32;;;;;;;3.90;0.70;;;13.80;73.10;;;;;;3917699;30;20725;-64
2022/04/09 09:39:03;;;;;;;3.95;0.90;;;14.20;71.50;;;;;;3898574;30;20177;-65
2022/04/09 09:41:25;;;;;;;2.05;0.40;;;14.80;69.50;;;;;;3926834;30;20055;-65
2022/04/09 09:44:01;;;;;;;3.00;0.50;;;15.40;67.50;;;;;;3925533;30;20134;-67
2022/04/09 09:46:25;;;;;;;4.60;0.93;;;15.90;65.10;;;;;;3926257;30;20114;-65
2022/04/09 09:48:51;;;;;;;5.40;1.20;;;16.60;63.10;;;;;;3925490;30;20079;-66
2022/04/09 09:51:23;;;;;;;3.83;0.90;;;17.10;61.30;;;;;;3926154;30;20052;-64
2022/04/09 09:53:45;;;;;;;4.78;1.10;;;17.70;59.30;;;;;;3926445;30;20121;-65
2022/04/09 09:56:07;;;;;;;4.85;1.00;;;18.20;58.50;;;;;;3925798;30;20142;-65
2022/04/09 09:58:30;;;;;;;5.00;1.33;;;18.60;57.30;;;;;;3926509;30;20094;-65
2022/04/09 10:01:10;;;;;;;4.00;1.10;;;18.90;56.70;;;;;;3926566;30;20136;-65
2022/04/09 10:03:35;;;;;;;5.97;0.90;;;19.00;55.70;;;;;;3926410;30;20135;-65
2022/04/09 10:05:57;;;;;;;3.65;0.77;;;19.00;54.90;;;;;;3921657;30;20664;-65
2022/04/09 10:08:19;;;;;;;3.08;0.85;;;19.00;55.40;;;;;;3911895;30;20143;-67
2022/04/09 10:10:48;;;;;;;5.03;1.05;;;18.90;56.00;;;;;;3921410;30;21325;-68
2022/04/09 10:13:11;;;;;;;0.90;0.60;;;18.80;56.40;;;;;;3925921;30;20200;-68
2022/04/09 10:15:34;;;;;;;2.55;0.50;;;18.60;56.70;;;;;;3912795;30;20462;-68
2022/04/09 10:17:58;;;;;;;3.83;0.60;;;18.50;57.00;;;;;;3926530;30;20508;-68
2022/04/09 10:20:25;;;;;;;3.92;0.85;;;18.30;57.50;;;;;;3926057;30;20493;-68
2022/04/09 10:22:47;;;;;;;0.90;0.50;;;18.10;58.00;;;;;;3926655;30;20056;-69
2022/04/09 10:25:10;;;;;;;1.83;0.73;;;18.10;58.10;;;;;;3926390;30;20056;-69
2022/04/09 10:27:37;;;;;;;1.58;0.40;;;18.00;57.50;;;;;;3926340;30;20059;-68
2022/04/09 10:30:02;;;;;;;2.05;0.70;;;17.90;57.70;;;;;;3911916;30;20375;-69
2022/04/09 10:32:44;;;;;;;2.30;0.68;;;17.80;57.80;;;;;;3911610;30;20071;-69
2022/04/09 10:35:24;;;;;;;0.98;0.40;;;17.80;57.90;;;;;;3911627;30;20053;-67
2022/04/09 10:38:17;;;;;;;2.40;1.77;;;17.80;58.40;;;;;;3899473;30;20637;-67
2022/04/09 10:41:25;;;;;;;3.33;2.22;;;17.80;58.40;;;;;;3926515;30;20489;-67
2022/04/09 10:43:47;;;;;;;10.40;5.43;;;17.80;57.80;;;;;;3926203;30;20052;-67
2022/04/09 10:46:21;;;;;;;5.47;3.80;;;17.90;58.10;;;;;;3926494;30;20113;-67
2022/04/09 10:48:44;;;;;;;3.85;2.38;;;17.80;58.00;;;;;;3926126;30;20056;-67
2022/04/09 10:51:09;;;;;;;1.85;0.55;;;17.90;58.40;;;;;;3925230;30;20590;-67
2022/04/09 10:53:32;;;;;;;4.78;3.45;;;18.00;58.10;;;;;;3926091;30;20509;-67
2022/04/09 10:56:14;;;;;;;3.47;2.70;;;18.00;58.00;;;;;;3926228;30;20388;-67
2022/04/09 10:59:16;;;;;;;2.53;1.05;;;18.10;57.60;;;;;;3925954;30;20056;-67
2022/04/09 11:01:54;;;;;;;2.42;0.90;;;18.10;57.90;;;;;;3925182;30;20087;-67
2022/04/09 11:04:42;;;;;;;2.55;1.70;;;18.10;57.90;;;;;;3926195;30;20473;-67
2022/04/09 11:07:07;;;;;;;5.07;1.98;;;18.00;58.00;;;;;;3914092;30;20068;-67
2022/04/09 11:09:58;;;;;;;3.35;0.50;;;18.00;57.90;;;;;;3914303;30;20060;-67
2022/04/09 11:12:24;;;;;;;1.63;1.33;;;18.00;58.10;;;;;;3914167;30;20048;-67
2022/04/09 11:14:48;;;;;;;2.47;1.23;;;18.00;58.50;;;;;;3914440;30;20558;-67
2022/04/09 11:17:18;;;;;;;3.20;1.38;;;17.90;58.70;;;;;;3910512;30;20063;-67
2022/04/09 11:19:42;;;;;;;4.28;1.27;;;17.90;58.60;;;;;;3928507;30;20052;-66
2022/04/09 11:22:10;;;;;;;2.80;0.80;;;17.90;58.80;;;;;;3928592;30;20437;-67
2022/04/09 11:24:37;;;;;;;3.70;0.82;;;17.90;58.60;;;;;;3928600;30;20532;-67
2022/04/09 11:26:59;;;;;;;3.17;1.58;;;17.80;58.30;;;;;;3928634;30;20048;-67
2022/04/09 11:29:21;;;;;;;2.65;1.40;;;17.80;58.30;;;;;;3928162;30;20435;-68
2022/04/09 11:31:47;;;;;;;4.07;1.40;;;17.90;59.20;;;;;;3912068;30;20152;-68
2022/04/09 11:34:09;;;;;;;5.30;0.95;;;17.90;59.20;;;;;;3927049;30;20142;-67
2022/04/09 11:36:31;;;;;;;3.75;1.77;;;17.90;59.70;;;;;;3914653;30;20057;-67
2022/04/09 11:38:55;;;;;;;4.15;1.20;;;17.80;59.50;;;;;;3900689;30;20060;-67
2022/04/09 11:41:20;;;;;;;7.03;1.40;;;17.80;59.50;;;;;;3914030;30;20068;-68
2022/04/09 11:43:46;;;;;;;10.52;1.38;;;17.80;59.20;;;;;;3913933;30;20135;-67
2022/04/09 11:46:10;;;;;;;6.07;1.60;;;17.80;59.40;;;;;;3927480;30;20118;-67
2022/04/09 11:48:32;;;;;;;7.03;1.77;;;17.80;59.20;;;;;;3928513;30;20422;-67
2022/04/09 11:50:54;;;;;;;2.97;1.30;;;17.80;59.20;;;;;;3928314;30;20463;-67
2022/04/09 11:53:18;;;;;;;5.97;1.63;;;17.90;58.80;;;;;;3928161;30;20519;-67
2022/04/09 11:55:43;;;;;;;3.95;1.33;;;17.80;57.10;;;;;;3927029;30;20063;-67
2022/04/09 11:58:06;;;;;;;7.07;1.40;;;17.80;56.90;;;;;;3896067;30;20053;-67
2022/04/09 12:00:30;;;;;;;10.68;5.50;;;17.80;58.00;;;;;;3884657;30;20375;-66
2022/04/09 12:02:52;;;;;;;5.30;1.50;;;17.80;56.90;;;;;;3884976;30;20649;-68
2022/04/09 12:05:16;;;;;;;6.88;1.95;;;17.80;56.30;;;;;;3887410;30;20528;-67
2022/04/09 12:07:41;;;;;;;6.15;2.10;;;17.70;57.80;;;;;;3884756;30;20119;-66
2022/04/09 12:10:04;;;;;;;8.93;1.23;;;17.70;56.60;;;;;;3884107;30;20049;-66
2022/04/09 12:12:28;;;;;;;1.75;1.05;;;17.60;58.20;;;;;;3884810;30;20053;-67
2022/04/09 12:14:56;;;;;;;4.60;1.40;;;17.60;59.10;;;;;;3895361;30;20067;-66
2022/04/09 12:17:18;;;;;;;3.22;1.13;;;17.50;59.40;;;;;;3892146;30;20049;-66
2022/04/09 12:19:43;;;;;;;9.07;1.33;;;17.50;59.60;;;;;;3897003;30;20059;-67
2022/04/09 12:22:14;;;;;;;3.05;1.25;;;17.50;59.90;;;;;;3898438;30;20056;-69
2022/04/09 12:24:49;;;;;;;4.40;0.82;;;17.40;59.90;;;;;;3898650;30;25323;-69
2022/04/09 12:27:16;;;;;;;3.40;1.38;;;17.40;60.30;;;;;;3884590;30;20061;-68
2022/04/09 12:29:48;;;;;;;4.72;1.08;;;17.40;59.80;;;;;;3898382;30;20064;-68
2022/04/09 12:32:19;;;;;;;6.20;1.33;;;17.50;60.10;;;;;;3898108;30;20509;-67
2022/04/09 12:34:53;;;;;;;2.72;1.02;;;17.50;59.80;;;;;;3897999;30;20144;-67